Estación Meteorológica Peña el Pijo (Robertgarden) [ 11/20/18 01:23:18 CET ]

Fecha Hora Presion(HPa) Temp (°C) Humedad % Rocio (°C) Viento ( m/s) Direccion Lluvia 1Hora(mm) Lluvia 24H(mm) LLuvia Total(mm)
2018-Nov-11 01:01:34 1007.600 11.0 77 7.1         102.04
2018-Nov-11 02:02:37 1007.500 9.5 78 5.8         102.04
2018-Nov-11 03:05:10 1007.600 8.1 81 5.1         102.04
2018-Nov-11 04:01:48 1007.400 7.1 82 4.2         102.04
2018-Nov-11 05:01:42 1007.200 6.4 84 3.9         102.04
2018-Nov-11 06:01:47 1007.100 6.3 85 3.9         102.04
2018-Nov-11 07:01:48 1007.300 6.1 86 3.9         102.04
2018-Nov-11 08:01:43 1007.500 5.3 86 3.1         102.04
2018-Nov-11 09:01:37 1007.800 6.7 89 5.0         102.04
2018-Nov-11 10:01:48 1008.000 13.9 86 11.6         102.04
2018-Nov-11 11:01:46 1007.200 18.2 64 11.2         102.04
2018-Nov-11 12:01:42 1006.700 18.2 58 9.8 0.4 N     102.04
2018-Nov-11 13:01:41 1005.500 20.9 53 10.9         102.04
2018-Nov-11 14:01:38 1004.900 22.6 46 10.3         102.04
2018-Nov-11 15:01:39 1004.500 21.5 41 7.7         102.04
2018-Nov-11 16:01:37 1004.000 21.3 44 8.5         102.04
2018-Nov-11 17:01:33 1004.100 17.8 52 7.8         102.04
2018-Nov-11 18:01:51 1004.000 14.9 60 7.2         102.04
2018-Nov-11 19:01:41 1004.300 11.6 68 6.1         102.04
2018-Nov-11 20:01:38 1004.500 9.5 74 5.1         102.04
2018-Nov-11 21:01:29 1004.800 7.6 78 4.0         102.04
2018-Nov-11 22:01:44 1005.000 6.3 81 3.3         102.04
2018-Nov-11 23:01:33 1005.000 5.4 83 2.7         102.04

Temperatura Máxima:22°    Temperatura Mínima:
Presión Máxima:1008.000 Hpa    Presión Mínima:1004.000 Hpa


Volver